sensor_id;sensor_type;location;lat;lon;timestamp;P1;durP1;ratioP1;P2;durP2;ratioP2
2488;SDS011;1255;48.716;9.124;2023-07-08T00:00:13;11.00;;;7.13;;
2488;SDS011;1255;48.716;9.124;2023-07-08T00:02:41;8.67;;;6.83;;
2488;SDS011;1255;48.716;9.124;2023-07-08T00:05:09;10.60;;;6.97;;
2488;SDS011;1255;48.716;9.124;2023-07-08T00:07:36;9.73;;;6.90;;
2488;SDS011;1255;48.716;9.124;2023-07-08T00:10:09;7.73;;;5.70;;
2488;SDS011;1255;48.716;9.124;2023-07-08T00:12:40;7.67;;;5.50;;
2488;SDS011;1255;48.716;9.124;2023-07-08T00:15:07;7.30;;;5.03;;
2488;SDS011;1255;48.716;9.124;2023-07-08T00:17:34;8.70;;;4.90;;
2488;SDS011;1255;48.716;9.124;2023-07-08T00:20:04;6.40;;;4.97;;
2488;SDS011;1255;48.716;9.124;2023-07-08T00:22:36;7.17;;;5.23;;
2488;SDS011;1255;48.716;9.124;2023-07-08T00:25:06;6.27;;;4.13;;
2488;SDS011;1255;48.716;9.124;2023-07-08T00:27:33;8.50;;;5.13;;
2488;SDS011;1255;48.716;9.124;2023-07-08T00:30:01;5.57;;;4.23;;
2488;SDS011;1255;48.716;9.124;2023-07-08T00:32:28;8.00;;;4.43;;
2488;SDS011;1255;48.716;9.124;2023-07-08T00:34:55;6.10;;;4.10;;
2488;SDS011;1255;48.716;9.124;2023-07-08T00:37:21;6.47;;;4.37;;
2488;SDS011;1255;48.716;9.124;2023-07-08T00:39:48;5.27;;;3.80;;
2488;SDS011;1255;48.716;9.124;2023-07-08T00:42:16;5.47;;;4.33;;
2488;SDS011;1255;48.716;9.124;2023-07-08T00:44:44;5.03;;;4.10;;
2488;SDS011;1255;48.716;9.124;2023-07-08T00:47:13;5.00;;;4.27;;
2488;SDS011;1255;48.716;9.124;2023-07-08T00:49:42;7.30;;;4.80;;
2488;SDS011;1255;48.716;9.124;2023-07-08T00:52:18;5.30;;;3.30;;
2488;SDS011;1255;48.716;9.124;2023-07-08T00:54:48;6.00;;;4.20;;
2488;SDS011;1255;48.716;9.124;2023-07-08T00:57:16;4.67;;;3.83;;
2488;SDS011;1255;48.716;9.124;2023-07-08T00:59:44;6.90;;;4.07;;
2488;SDS011;1255;48.716;9.124;2023-07-08T01:02:16;6.43;;;3.90;;
2488;SDS011;1255;48.716;9.124;2023-07-08T01:04:48;6.00;;;4.13;;
2488;SDS011;1255;48.716;9.124;2023-07-08T01:07:21;7.40;;;4.90;;
2488;SDS011;1255;48.716;9.124;2023-07-08T01:09:51;6.07;;;4.60;;
2488;SDS011;1255;48.716;9.124;2023-07-08T01:12:23;7.97;;;4.60;;
2488;SDS011;1255;48.716;9.124;2023-07-08T01:14:56;5.40;;;4.20;;
2488;SDS011;1255;48.716;9.124;2023-07-08T01:17:26;5.20;;;4.03;;
2488;SDS011;1255;48.716;9.124;2023-07-08T01:19:57;6.00;;;3.87;;
2488;SDS011;1255;48.716;9.124;2023-07-08T01:22:26;5.33;;;4.40;;
2488;SDS011;1255;48.716;9.124;2023-07-08T01:24:57;6.17;;;3.87;;
2488;SDS011;1255;48.716;9.124;2023-07-08T01:27:28;5.67;;;4.30;;
2488;SDS011;1255;48.716;9.124;2023-07-08T01:29:57;5.93;;;4.40;;
2488;SDS011;1255;48.716;9.124;2023-07-08T01:32:24;6.20;;;4.83;;
2488;SDS011;1255;48.716;9.124;2023-07-08T01:34:52;5.33;;;3.93;;
2488;SDS011;1255;48.716;9.124;2023-07-08T01:37:28;6.90;;;4.17;;
2488;SDS011;1255;48.716;9.124;2023-07-08T01:40:13;5.07;;;3.73;;
2488;SDS011;1255;48.716;9.124;2023-07-08T01:42:47;5.67;;;3.73;;
2488;SDS011;1255;48.716;9.124;2023-07-08T01:45:15;7.27;;;4.40;;
2488;SDS011;1255;48.716;9.124;2023-07-08T01:47:44;5.90;;;3.87;;
2488;SDS011;1255;48.716;9.124;2023-07-08T01:50:13;6.13;;;4.10;;
2488;SDS011;1255;48.716;9.124;2023-07-08T01:52:42;5.53;;;4.63;;
2488;SDS011;1255;48.716;9.124;2023-07-08T01:55:09;5.50;;;4.10;;
2488;SDS011;1255;48.716;9.124;2023-07-08T01:57:36;6.03;;;4.70;;
2488;SDS011;1255;48.716;9.124;2023-07-08T02:00:03;5.10;;;3.87;;
2488;SDS011;1255;48.716;9.124;2023-07-08T02:02:31;5.00;;;3.70;;
2488;SDS011;1255;48.716;9.124;2023-07-08T02:04:57;4.93;;;3.77;;
2488;SDS011;1255;48.716;9.124;2023-07-08T02:07:24;6.77;;;4.50;;
2488;SDS011;1255;48.716;9.124;2023-07-08T02:09:52;6.03;;;4.40;;
2488;SDS011;1255;48.716;9.124;2023-07-08T02:12:20;6.00;;;4.20;;
2488;SDS011;1255;48.716;9.124;2023-07-08T02:14:46;4.87;;;3.60;;
2488;SDS011;1255;48.716;9.124;2023-07-08T02:17:13;7.37;;;4.50;;
2488;SDS011;1255;48.716;9.124;2023-07-08T02:19:41;6.30;;;4.60;;
2488;SDS011;1255;48.716;9.124;2023-07-08T02:22:08;5.57;;;4.50;;
2488;SDS011;1255;48.716;9.124;2023-07-08T02:24:35;5.27;;;4.10;;
2488;SDS011;1255;48.716;9.124;2023-07-08T02:27:03;5.80;;;4.27;;
2488;SDS011;1255;48.716;9.124;2023-07-08T02:29:30;4.77;;;3.60;;
2488;SDS011;1255;48.716;9.124;2023-07-08T02:31:58;5.60;;;3.73;;
2488;SDS011;1255;48.716;9.124;2023-07-08T02:34:24;5.77;;;4.20;;
2488;SDS011;1255;48.716;9.124;2023-07-08T02:36:51;5.50;;;3.93;;
2488;SDS011;1255;48.716;9.124;2023-07-08T02:39:18;6.57;;;4.00;;
2488;SDS011;1255;48.716;9.124;2023-07-08T02:41:44;8.73;;;4.50;;
2488;SDS011;1255;48.716;9.124;2023-07-08T02:44:12;7.03;;;4.20;;
2488;SDS011;1255;48.716;9.124;2023-07-08T02:46:39;4.77;;;4.17;;
2488;SDS011;1255;48.716;9.124;2023-07-08T02:49:06;6.33;;;4.53;;
2488;SDS011;1255;48.716;9.124;2023-07-08T02:51:33;7.83;;;3.83;;
2488;SDS011;1255;48.716;9.124;2023-07-08T02:53:59;6.00;;;4.07;;
2488;SDS011;1255;48.716;9.124;2023-07-08T02:56:26;5.93;;;4.20;;
2488;SDS011;1255;48.716;9.124;2023-07-08T02:58:53;4.50;;;3.57;;
2488;SDS011;1255;48.716;9.124;2023-07-08T03:01:21;5.73;;;3.70;;
2488;SDS011;1255;48.716;9.124;2023-07-08T03:03:48;6.27;;;4.37;;
2488;SDS011;1255;48.716;9.124;2023-07-08T03:06:15;6.33;;;4.10;;
2488;SDS011;1255;48.716;9.124;2023-07-08T03:08:42;7.33;;;4.60;;
2488;SDS011;1255;48.716;9.124;2023-07-08T03:11:08;5.17;;;3.80;;
2488;SDS011;1255;48.716;9.124;2023-07-08T03:13:35;6.80;;;4.60;;
2488;SDS011;1255;48.716;9.124;2023-07-08T03:16:02;4.80;;;4.00;;
2488;SDS011;1255;48.716;9.124;2023-07-08T03:18:38;6.10;;;4.23;;
2488;SDS011;1255;48.716;9.124;2023-07-08T03:21:11;5.23;;;3.63;;
2488;SDS011;1255;48.716;9.124;2023-07-08T03:23:39;5.20;;;3.40;;
2488;SDS011;1255;48.716;9.124;2023-07-08T03:26:06;5.60;;;4.10;;
2488;SDS011;1255;48.716;9.124;2023-07-08T03:28:34;4.73;;;4.00;;
2488;SDS011;1255;48.716;9.124;2023-07-08T03:31:01;4.80;;;4.07;;
2488;SDS011;1255;48.716;9.124;2023-07-08T03:33:27;5.70;;;3.80;;
2488;SDS011;1255;48.716;9.124;2023-07-08T03:35:55;6.30;;;4.30;;
2488;SDS011;1255;48.716;9.124;2023-07-08T03:38:22;5.97;;;4.30;;
2488;SDS011;1255;48.716;9.124;2023-07-08T03:40:49;6.47;;;4.00;;
2488;SDS011;1255;48.716;9.124;2023-07-08T03:43:16;5.10;;;4.40;;
2488;SDS011;1255;48.716;9.124;2023-07-08T03:45:43;8.20;;;5.00;;
2488;SDS011;1255;48.716;9.124;2023-07-08T03:48:09;4.63;;;3.87;;
2488;SDS011;1255;48.716;9.124;2023-07-08T03:50:37;7.77;;;4.70;;
2488;SDS011;1255;48.716;9.124;2023-07-08T03:53:05;5.53;;;4.10;;
2488;SDS011;1255;48.716;9.124;2023-07-08T03:55:32;6.00;;;4.37;;
2488;SDS011;1255;48.716;9.124;2023-07-08T03:57:58;7.40;;;4.33;;
2488;SDS011;1255;48.716;9.124;2023-07-08T04:00:25;5.33;;;4.37;;
2488;SDS011;1255;48.716;9.124;2023-07-08T04:02:52;7.03;;;4.37;;
2488;SDS011;1255;48.716;9.124;2023-07-08T04:05:19;5.30;;;4.20;;
2488;SDS011;1255;48.716;9.124;2023-07-08T04:07:47;6.30;;;3.90;;
2488;SDS011;1255;48.716;9.124;2023-07-08T04:10:16;5.97;;;3.80;;
2488;SDS011;1255;48.716;9.124;2023-07-08T04:12:43;6.43;;;4.30;;
2488;SDS011;1255;48.716;9.124;2023-07-08T04:15:10;4.83;;;3.87;;
2488;SDS011;1255;48.716;9.124;2023-07-08T04:17:37;6.63;;;3.73;;
2488;SDS011;1255;48.716;9.124;2023-07-08T04:20:08;6.43;;;4.10;;
2488;SDS011;1255;48.716;9.124;2023-07-08T04:22:36;6.93;;;5.10;;
2488;SDS011;1255;48.716;9.124;2023-07-08T04:25:03;7.00;;;4.90;;
2488;SDS011;1255;48.716;9.124;2023-07-08T04:27:32;6.70;;;4.50;;
2488;SDS011;1255;48.716;9.124;2023-07-08T04:29:59;6.33;;;4.33;;
2488;SDS011;1255;48.716;9.124;2023-07-08T04:32:25;7.00;;;4.37;;
2488;SDS011;1255;48.716;9.124;2023-07-08T04:34:53;5.03;;;3.70;;
2488;SDS011;1255;48.716;9.124;2023-07-08T04:37:19;5.57;;;3.80;;
2488;SDS011;1255;48.716;9.124;2023-07-08T04:39:46;5.80;;;4.10;;
2488;SDS011;1255;48.716;9.124;2023-07-08T04:42:13;7.93;;;4.00;;
2488;SDS011;1255;48.716;9.124;2023-07-08T04:44:43;6.40;;;4.50;;
2488;SDS011;1255;48.716;9.124;2023-07-08T04:47:10;5.28;;;4.50;;
2488;SDS011;1255;48.716;9.124;2023-07-08T04:49:38;5.77;;;4.70;;
2488;SDS011;1255;48.716;9.124;2023-07-08T04:52:08;5.13;;;3.87;;
2488;SDS011;1255;48.716;9.124;2023-07-08T04:54:35;6.37;;;4.47;;
2488;SDS011;1255;48.716;9.124;2023-07-08T04:57:02;5.30;;;4.43;;
2488;SDS011;1255;48.716;9.124;2023-07-08T04:59:29;5.83;;;3.90;;
2488;SDS011;1255;48.716;9.124;2023-07-08T05:02:00;5.87;;;4.73;;
2488;SDS011;1255;48.716;9.124;2023-07-08T05:04:27;5.67;;;4.37;;
2488;SDS011;1255;48.716;9.124;2023-07-08T05:06:54;6.00;;;4.13;;
2488;SDS011;1255;48.716;9.124;2023-07-08T05:09:21;5.77;;;3.93;;
2488;SDS011;1255;48.716;9.124;2023-07-08T05:11:50;5.27;;;3.73;;
2488;SDS011;1255;48.716;9.124;2023-07-08T05:14:17;5.57;;;4.40;;
2488;SDS011;1255;48.716;9.124;2023-07-08T05:16:44;6.90;;;4.40;;
2488;SDS011;1255;48.716;9.124;2023-07-08T05:19:12;6.20;;;4.40;;
2488;SDS011;1255;48.716;9.124;2023-07-08T05:21:39;6.07;;;4.30;;
2488;SDS011;1255;48.716;9.124;2023-07-08T05:24:06;11.10;;;4.63;;
2488;SDS011;1255;48.716;9.124;2023-07-08T05:26:33;6.97;;;4.57;;
2488;SDS011;1255;48.716;9.124;2023-07-08T05:29:00;6.17;;;4.50;;
2488;SDS011;1255;48.716;9.124;2023-07-08T05:31:27;5.97;;;4.27;;
2488;SDS011;1255;48.716;9.124;2023-07-08T05:33:54;5.43;;;4.20;;
2488;SDS011;1255;48.716;9.124;2023-07-08T05:36:22;5.10;;;3.70;;
2488;SDS011;1255;48.716;9.124;2023-07-08T05:38:49;6.80;;;4.60;;
2488;SDS011;1255;48.716;9.124;2023-07-08T05:41:15;7.10;;;4.50;;
2488;SDS011;1255;48.716;9.124;2023-07-08T05:43:42;6.63;;;4.90;;
2488;SDS011;1255;48.716;9.124;2023-07-08T05:46:09;5.40;;;4.63;;
2488;SDS011;1255;48.716;9.124;2023-07-08T05:48:36;5.50;;;4.23;;
2488;SDS011;1255;48.716;9.124;2023-07-08T05:51:02;5.40;;;4.00;;
2488;SDS011;1255;48.716;9.124;2023-07-08T05:53:31;5.03;;;3.83;;
2488;SDS011;1255;48.716;9.124;2023-07-08T05:55:57;5.47;;;4.10;;
2488;SDS011;1255;48.716;9.124;2023-07-08T05:58:24;5.73;;;4.30;;
2488;SDS011;1255;48.716;9.124;2023-07-08T06:00:54;7.80;;;4.03;;
2488;SDS011;1255;48.716;9.124;2023-07-08T06:03:22;7.17;;;4.63;;
2488;SDS011;1255;48.716;9.124;2023-07-08T06:05:48;5.13;;;3.80;;
2488;SDS011;1255;48.716;9.124;2023-07-08T06:08:15;5.97;;;4.00;;
2488;SDS011;1255;48.716;9.124;2023-07-08T06:10:43;5.33;;;4.07;;
2488;SDS011;1255;48.716;9.124;2023-07-08T06:13:10;5.47;;;4.27;;
2488;SDS011;1255;48.716;9.124;2023-07-08T06:15:38;6.70;;;4.40;;
2488;SDS011;1255;48.716;9.124;2023-07-08T06:18:05;5.07;;;3.67;;
2488;SDS011;1255;48.716;9.124;2023-07-08T06:20:31;7.60;;;4.93;;
2488;SDS011;1255;48.716;9.124;2023-07-08T06:22:58;5.37;;;3.80;;
2488;SDS011;1255;48.716;9.124;2023-07-08T06:25:25;7.00;;;4.50;;
2488;SDS011;1255;48.716;9.124;2023-07-08T06:27:53;6.57;;;4.70;;
2488;SDS011;1255;48.716;9.124;2023-07-08T06:30:20;4.90;;;3.70;;
2488;SDS011;1255;48.716;9.124;2023-07-08T06:32:46;5.40;;;4.57;;
2488;SDS011;1255;48.716;9.124;2023-07-08T06:35:13;6.13;;;4.00;;
2488;SDS011;1255;48.716;9.124;2023-07-08T06:37:40;4.67;;;3.73;;
2488;SDS011;1255;48.716;9.124;2023-07-08T06:40:07;5.40;;;4.17;;
2488;SDS011;1255;48.716;9.124;2023-07-08T06:42:34;6.93;;;4.13;;
2488;SDS011;1255;48.716;9.124;2023-07-08T06:45:03;5.20;;;3.80;;
2488;SDS011;1255;48.716;9.124;2023-07-08T06:47:30;4.57;;;4.00;;
2488;SDS011;1255;48.716;9.124;2023-07-08T06:49:56;5.97;;;4.30;;
2488;SDS011;1255;48.716;9.124;2023-07-08T06:52:23;5.33;;;3.77;;
2488;SDS011;1255;48.716;9.124;2023-07-08T06:54:50;8.03;;;5.07;;
2488;SDS011;1255;48.716;9.124;2023-07-08T06:57:16;5.83;;;3.80;;
2488;SDS011;1255;48.716;9.124;2023-07-08T06:59:43;5.10;;;3.50;;
2488;SDS011;1255;48.716;9.124;2023-07-08T07:02:11;6.07;;;4.23;;
2488;SDS011;1255;48.716;9.124;2023-07-08T07:04:38;4.47;;;3.30;;
2488;SDS011;1255;48.716;9.124;2023-07-08T07:07:05;5.03;;;3.70;;
2488;SDS011;1255;48.716;9.124;2023-07-08T07:09:32;4.90;;;3.60;;
2488;SDS011;1255;48.716;9.124;2023-07-08T07:11:58;5.23;;;4.13;;
2488;SDS011;1255;48.716;9.124;2023-07-08T07:14:25;4.40;;;3.20;;
2488;SDS011;1255;48.716;9.124;2023-07-08T07:16:52;5.03;;;4.00;;
2488;SDS011;1255;48.716;9.124;2023-07-08T07:19:20;7.17;;;3.63;;
2488;SDS011;1255;48.716;9.124;2023-07-08T07:21:47;5.57;;;3.33;;
2488;SDS011;1255;48.716;9.124;2023-07-08T07:24:14;4.53;;;3.87;;
2488;SDS011;1255;48.716;9.124;2023-07-08T07:26:40;5.13;;;3.80;;
2488;SDS011;1255;48.716;9.124;2023-07-08T07:29:07;4.53;;;3.03;;
2488;SDS011;1255;48.716;9.124;2023-07-08T07:31:34;3.83;;;2.90;;
2488;SDS011;1255;48.716;9.124;2023-07-08T07:34:01;4.60;;;3.47;;
2488;SDS011;1255;48.716;9.124;2023-07-08T07:36:29;5.17;;;3.70;;
2488;SDS011;1255;48.716;9.124;2023-07-08T07:38:56;3.50;;;3.17;;
2488;SDS011;1255;48.716;9.124;2023-07-08T07:41:23;3.83;;;3.17;;
2488;SDS011;1255;48.716;9.124;2023-07-08T07:43:49;4.80;;;3.97;;
2488;SDS011;1255;48.716;9.124;2023-07-08T07:46:16;3.77;;;3.00;;
2488;SDS011;1255;48.716;9.124;2023-07-08T07:48:43;4.57;;;3.77;;
2488;SDS011;1255;48.716;9.124;2023-07-08T07:51:09;5.77;;;3.60;;
2488;SDS011;1255;48.716;9.124;2023-07-08T07:53:39;5.60;;;3.70;;
2488;SDS011;1255;48.716;9.124;2023-07-08T07:56:06;3.87;;;2.93;;
2488;SDS011;1255;48.716;9.124;2023-07-08T07:58:33;4.50;;;3.60;;
2488;SDS011;1255;48.716;9.124;2023-07-08T08:01:00;4.50;;;3.13;;
2488;SDS011;1255;48.716;9.124;2023-07-08T08:03:26;5.00;;;3.60;;
2488;SDS011;1255;48.716;9.124;2023-07-08T08:05:53;5.23;;;3.20;;
2488;SDS011;1255;48.716;9.124;2023-07-08T08:08:20;3.80;;;3.40;;
2488;SDS011;1255;48.716;9.124;2023-07-08T08:10:48;4.20;;;3.20;;
2488;SDS011;1255;48.716;9.124;2023-07-08T08:13:15;3.20;;;2.70;;
2488;SDS011;1255;48.716;9.124;2023-07-08T08:15:42;4.00;;;3.03;;
2488;SDS011;1255;48.716;9.124;2023-07-08T08:18:09;3.40;;;2.90;;
2488;SDS011;1255;48.716;9.124;2023-07-08T08:20:35;3.80;;;2.57;;
2488;SDS011;1255;48.716;9.124;2023-07-08T08:23:04;3.07;;;2.63;;
2488;SDS011;1255;48.716;9.124;2023-07-08T08:25:31;3.97;;;2.80;;
2488;SDS011;1255;48.716;9.124;2023-07-08T08:28:00;3.47;;;2.67;;
2488;SDS011;1255;48.716;9.124;2023-07-08T08:30:26;3.77;;;3.13;;
2488;SDS011;1255;48.716;9.124;2023-07-08T08:32:53;3.60;;;2.70;;
2488;SDS011;1255;48.716;9.124;2023-07-08T08:35:20;4.63;;;3.03;;
2488;SDS011;1255;48.716;9.124;2023-07-08T08:37:46;3.57;;;3.20;;
2488;SDS011;1255;48.716;9.124;2023-07-08T08:40:14;3.70;;;3.10;;
2488;SDS011;1255;48.716;9.124;2023-07-08T08:42:44;4.47;;;2.80;;
2488;SDS011;1255;48.716;9.124;2023-07-08T08:45:16;3.87;;;2.90;;
2488;SDS011;1255;48.716;9.124;2023-07-08T08:47:46;3.17;;;2.53;;
2488;SDS011;1255;48.716;9.124;2023-07-08T08:53:09;2.97;;;2.73;;
2488;SDS011;1255;48.716;9.124;2023-07-08T08:55:38;2.93;;;2.60;;
2488;SDS011;1255;48.716;9.124;2023-07-08T08:58:09;2.33;;;1.90;;
2488;SDS011;1255;48.716;9.124;2023-07-08T09:00:49;2.93;;;2.07;;
2488;SDS011;1255;48.716;9.124;2023-07-08T09:03:21;2.33;;;1.90;;
2488;SDS011;1255;48.716;9.124;2023-07-08T09:05:59;2.77;;;2.53;;
2488;SDS011;1255;48.716;9.124;2023-07-08T09:08:30;3.37;;;2.47;;
2488;SDS011;1255;48.716;9.124;2023-07-08T09:11:01;6.10;;;2.60;;
2488;SDS011;1255;48.716;9.124;2023-07-08T09:13:36;2.67;;;2.40;;
2488;SDS011;1255;48.716;9.124;2023-07-08T09:16:06;2.77;;;2.20;;
2488;SDS011;1255;48.716;9.124;2023-07-08T09:18:41;3.90;;;2.40;;
2488;SDS011;1255;48.716;9.124;2023-07-08T09:21:13;2.27;;;2.07;;
2488;SDS011;1255;48.716;9.124;2023-07-08T09:23:45;2.53;;;2.23;;
2488;SDS011;1255;48.716;9.124;2023-07-08T09:26:16;3.23;;;2.60;;
2488;SDS011;1255;48.716;9.124;2023-07-08T09:28:47;3.43;;;2.80;;
2488;SDS011;1255;48.716;9.124;2023-07-08T09:31:23;4.10;;;2.70;;
2488;SDS011;1255;48.716;9.124;2023-07-08T09:33:52;4.33;;;2.80;;
2488;SDS011;1255;48.716;9.124;2023-07-08T09:36:22;2.67;;;2.47;;
2488;SDS011;1255;48.716;9.124;2023-07-08T09:38:50;2.83;;;2.53;;
2488;SDS011;1255;48.716;9.124;2023-07-08T09:41:28;4.70;;;2.10;;
2488;SDS011;1255;48.716;9.124;2023-07-08T09:46:52;3.10;;;2.70;;
2488;SDS011;1255;48.716;9.124;2023-07-08T09:49:21;2.77;;;2.53;;
2488;SDS011;1255;48.716;9.124;2023-07-08T09:51:50;3.30;;;2.70;;
2488;SDS011;1255;48.716;9.124;2023-07-08T09:54:18;5.13;;;3.00;;
2488;SDS011;1255;48.716;9.124;2023-07-08T09:56:48;2.83;;;2.50;;
2488;SDS011;1255;48.716;9.124;2023-07-08T09:59:25;4.90;;;2.57;;
2488;SDS011;1255;48.716;9.124;2023-07-08T10:01:58;3.30;;;2.30;;
2488;SDS011;1255;48.716;9.124;2023-07-08T10:04:26;3.33;;;2.80;;
2488;SDS011;1255;48.716;9.124;2023-07-08T10:06:54;4.50;;;2.03;;
2488;SDS011;1255;48.716;9.124;2023-07-08T10:09:23;3.13;;;2.60;;
2488;SDS011;1255;48.716;9.124;2023-07-08T10:11:52;3.43;;;2.53;;
2488;SDS011;1255;48.716;9.124;2023-07-08T10:14:25;3.10;;;2.30;;
2488;SDS011;1255;48.716;9.124;2023-07-08T10:16:54;2.33;;;2.13;;
2488;SDS011;1255;48.716;9.124;2023-07-08T10:19:22;2.90;;;2.10;;
2488;SDS011;1255;48.716;9.124;2023-07-08T10:21:55;2.83;;;2.33;;
2488;SDS011;1255;48.716;9.124;2023-07-08T10:24:36;2.80;;;2.40;;
2488;SDS011;1255;48.716;9.124;2023-07-08T10:27:15;3.93;;;2.23;;
2488;SDS011;1255;48.716;9.124;2023-07-08T10:29:52;3.27;;;2.10;;
2488;SDS011;1255;48.716;9.124;2023-07-08T10:32:28;3.20;;;2.30;;
2488;SDS011;1255;48.716;9.124;2023-07-08T10:35:13;2.83;;;2.27;;
2488;SDS011;1255;48.716;9.124;2023-07-08T10:37:49;3.27;;;2.90;;
2488;SDS011;1255;48.716;9.124;2023-07-08T10:40:32;2.50;;;2.30;;
2488;SDS011;1255;48.716;9.124;2023-07-08T10:43:18;3.33;;;2.93;;
2488;SDS011;1255;48.716;9.124;2023-07-08T10:46:00;2.60;;;1.87;;
2488;SDS011;1255;48.716;9.124;2023-07-08T10:48:47;2.50;;;2.13;;
2488;SDS011;1255;48.716;9.124;2023-07-08T10:51:26;2.27;;;2.07;;
2488;SDS011;1255;48.716;9.124;2023-07-08T10:54:13;3.40;;;2.43;;
2488;SDS011;1255;48.716;9.124;2023-07-08T10:57:09;2.77;;;2.40;;
2488;SDS011;1255;48.716;9.124;2023-07-08T10:59:49;2.80;;;2.23;;
2488;SDS011;1255;48.716;9.124;2023-07-08T11:02:38;3.47;;;2.40;;
2488;SDS011;1255;48.716;9.124;2023-07-08T11:05:22;3.40;;;2.60;;
2488;SDS011;1255;48.716;9.124;2023-07-08T11:07:58;2.63;;;2.30;;
2488;SDS011;1255;48.716;9.124;2023-07-08T11:10:35;4.70;;;2.47;;
2488;SDS011;1255;48.716;9.124;2023-07-08T11:13:05;3.27;;;2.50;;
2488;SDS011;1255;48.716;9.124;2023-07-08T11:15:40;3.83;;;2.73;;
2488;SDS011;1255;48.716;9.124;2023-07-08T11:18:11;3.93;;;2.20;;
2488;SDS011;1255;48.716;9.124;2023-07-08T11:20:42;3.33;;;2.83;;
2488;SDS011;1255;48.716;9.124;2023-07-08T11:23:19;3.17;;;2.63;;
2488;SDS011;1255;48.716;9.124;2023-07-08T11:26:03;2.50;;;2.27;;
2488;SDS011;1255;48.716;9.124;2023-07-08T11:28:36;2.83;;;2.23;;
2488;SDS011;1255;48.716;9.124;2023-07-08T11:31:03;2.70;;;2.50;;
2488;SDS011;1255;48.716;9.124;2023-07-08T11:33:31;2.77;;;2.10;;
2488;SDS011;1255;48.716;9.124;2023-07-08T11:35:59;3.30;;;2.03;;
2488;SDS011;1255;48.716;9.124;2023-07-08T11:38:31;3.23;;;2.67;;
2488;SDS011;1255;48.716;9.124;2023-07-08T11:41:00;3.40;;;2.30;;
2488;SDS011;1255;48.716;9.124;2023-07-08T11:43:28;3.50;;;2.47;;
2488;SDS011;1255;48.716;9.124;2023-07-08T11:46:03;2.90;;;2.60;;
2488;SDS011;1255;48.716;9.124;2023-07-08T11:48:35;2.67;;;2.10;;
2488;SDS011;1255;48.716;9.124;2023-07-08T11:51:06;3.50;;;2.47;;
2488;SDS011;1255;48.716;9.124;2023-07-08T11:53:38;2.90;;;2.50;;
2488;SDS011;1255;48.716;9.124;2023-07-08T11:56:18;3.07;;;2.37;;
2488;SDS011;1255;48.716;9.124;2023-07-08T12:01:38;2.53;;;2.33;;
2488;SDS011;1255;48.716;9.124;2023-07-08T12:04:16;3.17;;;2.27;;
2488;SDS011;1255;48.716;9.124;2023-07-08T12:06:53;3.27;;;2.20;;
2488;SDS011;1255;48.716;9.124;2023-07-08T12:09:35;2.90;;;2.13;;
2488;SDS011;1255;48.716;9.124;2023-07-08T12:12:05;3.20;;;2.50;;
2488;SDS011;1255;48.716;9.124;2023-07-08T12:14:36;2.57;;;2.30;;
2488;SDS011;1255;48.716;9.124;2023-07-08T12:17:04;2.70;;;2.20;;
2488;SDS011;1255;48.716;9.124;2023-07-08T12:19:35;3.07;;;2.63;;
2488;SDS011;1255;48.716;9.124;2023-07-08T12:22:07;2.40;;;2.20;;
2488;SDS011;1255;48.716;9.124;2023-07-08T12:24:38;2.43;;;2.10;;
2488;SDS011;1255;48.716;9.124;2023-07-08T12:27:06;3.13;;;2.70;;
2488;SDS011;1255;48.716;9.124;2023-07-08T12:29:35;2.40;;;2.20;;
2488;SDS011;1255;48.716;9.124;2023-07-08T12:32:02;4.10;;;2.43;;
2488;SDS011;1255;48.716;9.124;2023-07-08T12:34:30;3.47;;;2.63;;
2488;SDS011;1255;48.716;9.124;2023-07-08T12:36:57;2.50;;;1.80;;
2488;SDS011;1255;48.716;9.124;2023-07-08T12:39:24;2.50;;;2.30;;
2488;SDS011;1255;48.716;9.124;2023-07-08T12:41:52;2.97;;;2.50;;
2488;SDS011;1255;48.716;9.124;2023-07-08T12:44:20;3.30;;;2.27;;
2488;SDS011;1255;48.716;9.124;2023-07-08T12:46:48;3.30;;;2.50;;
2488;SDS011;1255;48.716;9.124;2023-07-08T12:49:17;2.83;;;2.30;;
2488;SDS011;1255;48.716;9.124;2023-07-08T12:51:46;3.17;;;2.30;;
2488;SDS011;1255;48.716;9.124;2023-07-08T12:54:13;2.50;;;2.13;;
2488;SDS011;1255;48.716;9.124;2023-07-08T12:56:42;2.90;;;2.17;;
2488;SDS011;1255;48.716;9.124;2023-07-08T12:59:13;2.17;;;1.97;;
2488;SDS011;1255;48.716;9.124;2023-07-08T13:01:44;2.73;;;2.37;;
2488;SDS011;1255;48.716;9.124;2023-07-08T13:04:12;3.00;;;2.60;;
2488;SDS011;1255;48.716;9.124;2023-07-08T13:06:40;3.40;;;2.40;;
2488;SDS011;1255;48.716;9.124;2023-07-08T13:09:15;3.10;;;2.00;;
2488;SDS011;1255;48.716;9.124;2023-07-08T13:11:50;3.20;;;2.27;;
2488;SDS011;1255;48.716;9.124;2023-07-08T13:14:22;2.93;;;2.03;;
2488;SDS011;1255;48.716;9.124;2023-07-08T13:16:51;3.00;;;2.20;;
2488;SDS011;1255;48.716;9.124;2023-07-08T13:19:18;2.97;;;2.23;;
2488;SDS011;1255;48.716;9.124;2023-07-08T13:21:45;1.83;;;1.70;;
2488;SDS011;1255;48.716;9.124;2023-07-08T13:24:13;2.67;;;2.30;;
2488;SDS011;1255;48.716;9.124;2023-07-08T13:26:39;2.20;;;2.00;;
2488;SDS011;1255;48.716;9.124;2023-07-08T13:29:11;3.50;;;2.40;;
2488;SDS011;1255;48.716;9.124;2023-07-08T13:31:44;3.90;;;2.50;;
2488;SDS011;1255;48.716;9.124;2023-07-08T13:34:15;3.93;;;2.13;;
2488;SDS011;1255;48.716;9.124;2023-07-08T13:36:43;2.17;;;1.90;;
2488;SDS011;1255;48.716;9.124;2023-07-08T13:39:14;2.80;;;2.20;;
2488;SDS011;1255;48.716;9.124;2023-07-08T13:41:46;2.40;;;2.00;;
2488;SDS011;1255;48.716;9.124;2023-07-08T13:44:13;2.60;;;2.40;;
2488;SDS011;1255;48.716;9.124;2023-07-08T13:46:44;3.10;;;2.27;;
2488;SDS011;1255;48.716;9.124;2023-07-08T13:49:19;3.53;;;2.23;;
2488;SDS011;1255;48.716;9.124;2023-07-08T13:51:49;3.13;;;2.30;;
2488;SDS011;1255;48.716;9.124;2023-07-08T13:54:19;1.90;;;1.80;;
2488;SDS011;1255;48.716;9.124;2023-07-08T13:56:47;3.00;;;1.70;;
2488;SDS011;1255;48.716;9.124;2023-07-08T13:59:18;2.97;;;2.10;;
2488;SDS011;1255;48.716;9.124;2023-07-08T14:01:50;2.33;;;1.80;;
2488;SDS011;1255;48.716;9.124;2023-07-08T14:04:19;4.20;;;1.90;;
2488;SDS011;1255;48.716;9.124;2023-07-08T14:06:47;2.03;;;1.80;;
2488;SDS011;1255;48.716;9.124;2023-07-08T14:09:15;2.00;;;1.80;;
2488;SDS011;1255;48.716;9.124;2023-07-08T14:11:43;1.97;;;1.87;;
2488;SDS011;1255;48.716;9.124;2023-07-08T14:14:10;3.47;;;2.00;;
2488;SDS011;1255;48.716;9.124;2023-07-08T14:16:37;2.20;;;1.83;;
2488;SDS011;1255;48.716;9.124;2023-07-08T14:19:11;2.03;;;1.83;;
2488;SDS011;1255;48.716;9.124;2023-07-08T14:21:42;2.97;;;2.13;;
2488;SDS011;1255;48.716;9.124;2023-07-08T14:24:12;2.50;;;2.30;;
2488;SDS011;1255;48.716;9.124;2023-07-08T14:26:41;1.80;;;1.70;;
2488;SDS011;1255;48.716;9.124;2023-07-08T14:29:08;2.43;;;2.23;;
2488;SDS011;1255;48.716;9.124;2023-07-08T14:31:35;2.20;;;1.80;;
2488;SDS011;1255;48.716;9.124;2023-07-08T14:34:04;1.70;;;1.60;;
2488;SDS011;1255;48.716;9.124;2023-07-08T14:36:34;3.57;;;1.80;;
2488;SDS011;1255;48.716;9.124;2023-07-08T14:39:01;3.30;;;2.00;;
2488;SDS011;1255;48.716;9.124;2023-07-08T14:41:43;2.80;;;2.00;;
2488;SDS011;1255;48.716;9.124;2023-07-08T14:44:18;1.80;;;1.70;;
2488;SDS011;1255;48.716;9.124;2023-07-08T14:46:47;1.80;;;1.70;;
2488;SDS011;1255;48.716;9.124;2023-07-08T14:49:15;2.20;;;2.00;;
2488;SDS011;1255;48.716;9.124;2023-07-08T14:51:45;2.20;;;1.80;;
2488;SDS011;1255;48.716;9.124;2023-07-08T14:54:12;2.00;;;1.70;;
2488;SDS011;1255;48.716;9.124;2023-07-08T14:56:39;2.10;;;1.90;;
2488;SDS011;1255;48.716;9.124;2023-07-08T14:59:09;2.47;;;2.27;;
2488;SDS011;1255;48.716;9.124;2023-07-08T15:01:40;2.40;;;1.90;;
2488;SDS011;1255;48.716;9.124;2023-07-08T15:04:08;2.17;;;1.97;;
2488;SDS011;1255;48.716;9.124;2023-07-08T15:06:36;2.40;;;1.87;;
2488;SDS011;1255;48.716;9.124;2023-07-08T15:09:04;3.20;;;1.90;;
2488;SDS011;1255;48.716;9.124;2023-07-08T15:11:32;2.83;;;2.13;;
2488;SDS011;1255;48.716;9.124;2023-07-08T15:13:59;2.10;;;1.90;;
2488;SDS011;1255;48.716;9.124;2023-07-08T15:16:26;2.47;;;2.20;;
2488;SDS011;1255;48.716;9.124;2023-07-08T15:18:53;2.40;;;1.93;;
2488;SDS011;1255;48.716;9.124;2023-07-08T15:21:20;2.50;;;2.27;;
2488;SDS011;1255;48.716;9.124;2023-07-08T15:23:47;2.20;;;2.00;;
2488;SDS011;1255;48.716;9.124;2023-07-08T15:26:15;2.30;;;2.00;;
2488;SDS011;1255;48.716;9.124;2023-07-08T15:28:42;2.53;;;2.00;;
2488;SDS011;1255;48.716;9.124;2023-07-08T15:31:13;2.30;;;2.03;;
2488;SDS011;1255;48.716;9.124;2023-07-08T15:33:41;2.23;;;1.90;;
2488;SDS011;1255;48.716;9.124;2023-07-08T15:36:09;2.10;;;1.90;;